createdAt,value
2019-04-01T00:00:51.393Z,10.80
2019-04-01T00:04:56.809Z,13.03
2019-04-01T00:09:02.078Z,9.70
2019-04-01T00:13:07.808Z,15.73
2019-04-01T00:17:14.161Z,13.20
2019-04-01T00:21:19.542Z,9.00
2019-04-01T00:25:27.934Z,15.70
2019-04-01T00:29:34.000Z,9.30
2019-04-01T00:33:39.326Z,10.47
2019-04-01T00:37:44.582Z,10.33
2019-04-01T00:41:58.871Z,16.30
2019-04-01T00:46:04.185Z,10.60
2019-04-01T00:50:09.524Z,12.50
2019-04-01T00:54:14.764Z,12.37
2019-04-01T00:58:20.609Z,11.87
2019-04-01T01:02:26.052Z,11.87
2019-04-01T01:06:31.338Z,11.53
2019-04-01T01:10:36.529Z,9.53
2019-04-01T01:14:41.673Z,12.50
2019-04-01T01:18:48.213Z,6.07
2019-04-01T01:22:53.379Z,7.23
2019-04-01T01:26:58.584Z,11.47
2019-04-01T01:31:03.703Z,8.17
2019-04-01T01:35:08.977Z,7.10
2019-04-01T01:39:33.203Z,11.13
2019-04-01T01:43:38.353Z,6.10
2019-04-01T01:47:43.487Z,11.77
2019-04-01T01:51:48.605Z,6.43
2019-04-01T01:55:53.909Z,12.67
2019-04-01T01:59:59.164Z,12.97
2019-04-01T02:04:24.826Z,9.60
2019-04-01T02:08:30.015Z,6.13
2019-04-01T02:12:35.388Z,8.13
2019-04-01T02:16:40.631Z,8.68
2019-04-01T02:20:45.734Z,11.60
2019-04-01T02:24:50.969Z,12.93
2019-04-01T02:28:56.118Z,7.40
2019-04-01T02:33:01.362Z,7.53
2019-04-01T02:37:06.468Z,12.53
2019-04-01T02:41:11.750Z,13.17
2019-04-01T02:45:56.327Z,11.53
2019-04-01T02:50:01.580Z,6.80
2019-04-01T02:54:06.768Z,12.43
2019-04-01T02:58:11.968Z,11.87
2019-04-01T03:02:17.035Z,9.23
2019-04-01T03:06:22.432Z,12.40
2019-04-01T03:10:27.674Z,8.83
2019-04-01T03:14:32.782Z,9.43
2019-04-01T03:18:37.903Z,10.90
2019-04-01T03:23:02.054Z,9.67
2019-04-01T03:27:07.251Z,9.00
2019-04-01T03:31:12.681Z,9.60
2019-04-01T03:35:38.501Z,12.60
2019-04-01T03:39:43.872Z,11.20
2019-04-01T03:43:49.045Z,11.33
2019-04-01T03:47:54.527Z,11.27
2019-04-01T03:52:00.607Z,14.03
2019-04-01T04:00:23.194Z,14.20
2019-04-01T04:04:28.478Z,9.13
2019-04-01T04:08:34.379Z,7.23
2019-04-01T04:16:55.721Z,10.80
2019-04-01T04:21:02.621Z,10.47
2019-04-01T04:25:07.874Z,13.53
2019-04-01T04:29:13.033Z,12.97
2019-04-01T04:33:18.330Z,18.40
2019-04-01T04:37:23.839Z,13.17
2019-04-01T04:41:29.036Z,14.33
2019-04-01T04:50:05.603Z,14.37
2019-04-01T04:54:10.743Z,13.17
2019-04-01T04:58:15.993Z,13.77
2019-04-01T05:02:24.430Z,13.50
2019-04-01T05:06:50.514Z,11.70
2019-04-01T05:10:56.016Z,12.73
2019-04-01T05:15:01.279Z,9.30
2019-04-01T05:19:06.923Z,12.47
2019-04-01T05:23:32.765Z,13.83
2019-04-01T05:27:58.855Z,18.47
2019-04-01T05:32:43.628Z,11.43
2019-04-01T05:36:48.904Z,14.07
2019-04-01T05:40:54.077Z,13.33
2019-04-01T05:44:59.343Z,10.70
2019-04-01T05:49:04.542Z,9.23
2019-04-01T05:53:09.684Z,14.50
2019-04-01T05:57:15.442Z,12.07
2019-04-01T06:05:37.683Z,12.83
2019-04-01T06:09:42.861Z,11.47
2019-04-01T06:13:48.085Z,14.73
2019-04-01T06:17:54.893Z,10.67
2019-04-01T06:22:38.215Z,15.20
2019-04-01T06:26:43.379Z,15.70
2019-04-01T06:30:48.686Z,13.17
2019-04-01T06:34:53.820Z,12.97
2019-04-01T06:38:59.164Z,12.93
2019-04-01T06:43:04.292Z,15.20
2019-04-01T06:47:09.555Z,13.27
2019-04-01T06:51:14.764Z,15.53
2019-04-01T06:55:20.053Z,10.43
2019-04-01T06:59:25.310Z,15.83
2019-04-01T07:03:31.984Z,11.47
2019-04-01T07:07:37.137Z,13.77
2019-04-01T07:11:42.819Z,10.83
2019-04-01T07:15:48.207Z,11.93
2019-04-01T07:20:03.852Z,15.70
2019-04-01T07:24:09.002Z,10.57
2019-04-01T07:28:14.250Z,15.57
2019-04-01T07:32:19.425Z,9.57
2019-04-01T07:36:24.637Z,13.60
2019-04-01T07:40:31.405Z,11.37
2019-04-01T07:44:36.538Z,14.97
2019-04-01T07:48:41.688Z,13.80
2019-04-01T07:52:46.875Z,11.23
2019-04-01T08:01:29.898Z,15.03
2019-04-01T08:05:35.109Z,13.07
2019-04-01T08:09:40.580Z,9.10
2019-04-01T08:13:45.716Z,17.37
2019-04-01T08:17:53.081Z,12.07
2019-04-01T08:21:58.221Z,13.47
2019-04-01T08:26:03.405Z,11.33
2019-04-01T08:30:29.402Z,9.37
2019-04-01T08:34:45.273Z,10.67
2019-04-01T08:43:08.058Z,13.37
2019-04-01T08:47:13.271Z,12.20
2019-04-01T08:51:38.885Z,15.33
2019-04-01T08:55:44.043Z,12.40
2019-04-01T08:59:49.296Z,12.27
2019-04-01T09:17:57.529Z,12.20
2019-04-01T09:22:02.792Z,15.57
2019-04-01T09:26:07.926Z,14.57
2019-04-01T09:30:13.435Z,15.80
2019-04-01T09:34:18.761Z,15.83
2019-04-01T09:38:24.376Z,15.47
2019-04-01T09:42:30.293Z,18.17
2019-04-01T09:55:28.378Z,15.13
2019-04-01T09:59:39.289Z,17.20
2019-04-01T10:03:44.550Z,15.03
2019-04-01T10:07:51.779Z,14.30
2019-04-01T10:11:57.051Z,17.97
2019-04-01T10:16:02.255Z,17.23
2019-04-01T10:24:46.029Z,17.70
2019-04-01T10:28:51.240Z,16.97
2019-04-01T10:37:45.755Z,22.40
2019-04-01T10:42:10.526Z,16.97
2019-04-01T10:46:15.910Z,17.67
2019-04-01T10:54:38.944Z,18.27
2019-04-01T10:58:44.182Z,17.87
2019-04-01T11:02:50.133Z,18.47
2019-04-01T11:07:06.036Z,19.40
2019-04-01T11:11:13.443Z,22.63
2019-04-01T11:19:35.128Z,19.13
2019-04-01T11:23:40.355Z,20.07
2019-04-01T11:27:45.504Z,25.03
2019-04-01T11:31:52.043Z,19.87
2019-04-01T11:36:11.362Z,21.77
2019-04-01T11:40:17.389Z,19.63
2019-04-01T11:44:22.728Z,19.23
2019-04-01T11:48:27.988Z,22.10
2019-04-01T11:52:33.103Z,20.25
2019-04-01T11:56:38.399Z,22.17
2019-04-01T12:00:43.578Z,22.53
2019-04-01T12:05:00.636Z,19.07
2019-04-01T12:09:58.871Z,19.30
2019-04-01T12:14:12.337Z,21.60
2019-04-01T12:18:17.617Z,20.87
2019-04-01T12:22:22.721Z,20.40
2019-04-01T12:26:29.542Z,20.37
2019-04-01T12:35:33.670Z,20.20
2019-04-01T12:39:50.773Z,21.77
2019-04-01T12:43:55.893Z,16.23
2019-04-01T12:48:01.085Z,19.62
2019-04-01T12:52:06.240Z,17.35
2019-04-01T12:56:11.343Z,17.37
2019-04-01T13:04:51.265Z,19.95
2019-04-01T13:09:05.234Z,19.50
2019-04-01T13:13:13.092Z,18.80
2019-04-01T13:17:38.037Z,21.07
2019-04-01T13:21:43.500Z,15.80
2019-04-01T13:25:48.656Z,19.92
2019-04-01T13:29:53.843Z,18.27
2019-04-01T13:38:59.592Z,19.23
2019-04-01T13:43:04.972Z,18.57
2019-04-01T13:52:09.549Z,20.20
2019-04-01T13:56:14.726Z,17.55
2019-04-01T14:00:20.364Z,17.20
2019-04-01T14:04:46.104Z,18.70
2019-04-01T14:08:51.539Z,18.23
2019-04-01T14:12:56.753Z,15.23
2019-04-01T14:17:01.902Z,17.35
2019-04-01T14:21:16.365Z,19.55
2019-04-01T14:25:14.474Z,18.85
2019-04-01T14:29:26.398Z,15.85
2019-04-01T14:33:32.707Z,20.12
2019-04-01T14:37:58.372Z,20.00
2019-04-01T14:42:10.202Z,17.98
2019-04-01T14:46:15.493Z,19.73
2019-04-01T14:50:20.728Z,18.60
2019-04-01T14:54:25.891Z,20.90
2019-04-01T14:58:31.018Z,16.83
2019-04-01T15:02:36.286Z,17.48
2019-04-01T15:06:41.483Z,19.73
2019-04-01T15:10:49.128Z,17.60
2019-04-01T15:14:54.368Z,19.95
2019-04-01T15:19:48.385Z,19.77
2019-04-01T15:23:27.295Z,23.90
2019-04-01T15:27:38.512Z,16.62
2019-04-01T15:31:44.478Z,17.40
2019-04-01T15:35:49.726Z,20.50
2019-04-01T15:40:14.372Z,20.25
2019-04-01T15:44:19.683Z,15.83
2019-04-01T15:48:25.068Z,17.73
2019-04-01T15:52:30.265Z,18.73
2019-04-01T15:56:35.535Z,18.02
2019-04-01T16:01:01.634Z,16.60
2019-04-01T16:05:08.761Z,19.55
2019-04-01T16:13:30.921Z,18.82
2019-04-01T16:17:36.128Z,17.27
2019-04-01T16:21:41.580Z,19.35
2019-04-01T16:25:46.937Z,21.05
2019-04-01T16:29:52.126Z,19.77
2019-04-01T16:33:57.378Z,17.73
2019-04-01T16:38:02.536Z,17.77
2019-04-01T16:42:07.726Z,16.70
2019-04-01T16:46:32.058Z,17.17
2019-04-01T16:50:37.169Z,15.45
2019-04-01T16:59:20.410Z,18.27
2019-04-01T17:03:36.948Z,14.77
2019-04-01T17:07:42.551Z,15.90
2019-04-01T17:16:17.629Z,14.07
2019-04-01T17:20:41.895Z,14.45
2019-04-01T17:24:47.121Z,21.60
2019-04-01T17:28:52.340Z,20.72
2019-04-01T17:32:57.574Z,20.95
2019-04-01T17:37:02.776Z,14.60
2019-04-01T17:41:08.009Z,14.58
2019-04-01T17:45:48.065Z,14.73
2019-04-01T17:49:53.176Z,21.52
2019-04-01T17:54:01.031Z,18.48
2019-04-01T17:58:10.764Z,17.57
2019-04-01T18:06:52.810Z,19.80
2019-04-01T18:10:58.053Z,22.63
2019-04-01T18:19:54.192Z,16.50
2019-04-01T18:23:59.375Z,20.57
2019-04-01T18:28:12.892Z,26.47
2019-04-01T18:32:43.300Z,19.53
2019-04-01T18:36:48.544Z,20.27
2019-04-01T18:40:54.101Z,17.47
2019-04-01T18:44:59.274Z,16.17
2019-04-01T18:49:05.166Z,23.47
2019-04-01T18:53:10.371Z,19.63
2019-04-01T18:57:15.848Z,18.67
2019-04-01T19:01:21.191Z,18.67
2019-04-01T19:05:26.311Z,18.73
2019-04-01T19:09:32.656Z,17.03
2019-04-01T19:13:57.704Z,17.83
2019-04-01T19:18:21.960Z,16.83
2019-04-01T19:22:27.441Z,17.13
2019-04-01T19:26:32.656Z,18.57
2019-04-01T19:30:56.834Z,18.43
2019-04-01T19:35:02.031Z,20.80
2019-04-01T19:39:07.837Z,18.37
2019-04-01T19:43:13.084Z,20.20
2019-04-01T19:47:18.324Z,17.83
2019-04-01T19:51:23.485Z,16.13
2019-04-01T19:55:28.682Z,16.67
2019-04-01T19:59:35.693Z,17.13
2019-04-01T20:04:00.146Z,16.33
2019-04-01T20:12:35.794Z,16.27
2019-04-01T20:16:41.149Z,16.53
2019-04-01T20:21:06.873Z,18.80
2019-04-01T20:34:18.825Z,20.20
2019-04-01T20:38:32.455Z,19.60
2019-04-01T20:42:51.867Z,18.00
2019-04-01T20:46:50.945Z,17.53
2019-04-01T20:55:22.590Z,16.97
2019-04-01T20:59:27.757Z,17.23
2019-04-01T21:03:32.913Z,17.55
2019-04-01T21:12:20.481Z,18.43
2019-04-01T21:16:25.676Z,17.00
2019-04-01T21:20:32.614Z,14.97
2019-04-01T21:24:39.958Z,18.63
2019-04-01T21:28:45.443Z,15.97
2019-04-01T21:42:06.535Z,22.47
2019-04-01T21:46:11.737Z,18.83
2019-04-01T21:54:49.680Z,18.93
2019-04-01T21:58:55.300Z,18.60
2019-04-01T22:03:00.396Z,17.40
2019-04-01T22:07:17.951Z,19.83
2019-04-01T22:11:23.141Z,17.57
2019-04-01T22:15:28.339Z,23.20
2019-04-01T22:19:33.520Z,20.63
2019-04-01T22:23:40.384Z,19.40
2019-04-01T22:28:11.320Z,19.83
2019-04-01T22:32:16.448Z,21.30
2019-04-01T22:36:30.569Z,18.97
2019-04-01T22:41:13.679Z,19.60
2019-04-01T22:45:30.389Z,23.60
2019-04-01T22:54:02.253Z,24.50
2019-04-01T23:07:28.538Z,31.50
2019-04-01T23:11:34.042Z,28.93
2019-04-01T23:15:39.238Z,30.00
2019-04-01T23:24:15.672Z,35.40
2019-04-01T23:28:21.038Z,36.17
2019-04-01T23:32:26.348Z,37.73
2019-04-01T23:36:31.531Z,35.23
2019-04-01T23:44:46.293Z,31.50
2019-04-01T23:48:51.571Z,44.40
2019-04-01T23:53:08.384Z,33.93
2019-04-01T23:57:13.668Z,30.43
